BCS168 EDDP-EDDK
Flight info
| Callsign | BCS168 |
|---|---|
| Flight time | 0h 40m |
| Altitude | 28000 |
| Route | ORTAG5S/26L ORTAG Q230 KUMER DCT TOLTA DCT PODER Z189 RUNER T858 KOPAG KOPA31 |
| Aircraft | B738/M-SDE2E3FGHIRWXY/LB1 |
Departure
| Time | 2026-04-21 12:17 |
|---|---|
| Airport | Leipzig/Halle Airport (EDDP) |
Arrival
| Time | 2026-04-21 12:58 |
|---|---|
| Airport | Cologne Bonn Airport (EDDK) |
| Time | Latitude | Longitude | Altitude | Speed | Heading |
|---|---|---|---|---|---|
| 2026-04-21 12:17 | 51.40097 | 11.98080 | 6811 ft | 279 kts | 266° |
| 2026-04-21 12:17 | 51.39938 | 11.94958 | 6980 ft | 280 kts | 266° |
| 2026-04-21 12:17 | 51.39780 | 11.91820 | 6982 ft | 283 kts | 266° |
| 2026-04-21 12:17 | 51.39622 | 11.88651 | 7166 ft | 288 kts | 266° |
| 2026-04-21 12:18 | 51.39464 | 11.85478 | 8053 ft | 289 kts | 266° |
| 2026-04-21 12:18 | 51.39302 | 11.82253 | 8979 ft | 292 kts | 266° |
| 2026-04-21 12:18 | 51.39137 | 11.78955 | 9830 ft | 298 kts | 266° |
| 2026-04-21 12:18 | 51.38968 | 11.75639 | 10604 ft | 306 kts | 266° |
| 2026-04-21 12:19 | 51.38874 | 11.72090 | 10887 ft | 331 kts | 277° |
| 2026-04-21 12:19 | 51.39346 | 11.68393 | 11344 ft | 345 kts | 286° |
| 2026-04-21 12:19 | 51.39955 | 11.64649 | 12102 ft | 350 kts | 287° |
| 2026-04-21 12:19 | 51.40579 | 11.60858 | 12949 ft | 354 kts | 287° |
| 2026-04-21 12:20 | 51.41205 | 11.57006 | 13803 ft | 358 kts | 286° |
| 2026-04-21 12:20 | 51.41826 | 11.53113 | 14550 ft | 363 kts | 286° |
| 2026-04-21 12:20 | 51.42436 | 11.49226 | 15279 ft | 366 kts | 286° |
| 2026-04-21 12:20 | 51.43053 | 11.45241 | 16031 ft | 370 kts | 286° |
| 2026-04-21 12:21 | 51.43670 | 11.41221 | 16758 ft | 374 kts | 286° |
| 2026-04-21 12:21 | 51.44297 | 11.37132 | 17478 ft | 378 kts | 286° |
| 2026-04-21 12:21 | 51.44925 | 11.33005 | 18202 ft | 382 kts | 286° |
| 2026-04-21 12:21 | 51.45550 | 11.28892 | 18845 ft | 386 kts | 286° |
| 2026-04-21 12:22 | 51.46189 | 11.24679 | 19453 ft | 390 kts | 286° |
| 2026-04-21 12:22 | 51.46833 | 11.20419 | 20073 ft | 394 kts | 286° |
| 2026-04-21 12:22 | 51.47482 | 11.16121 | 20672 ft | 398 kts | 286° |
| 2026-04-21 12:22 | 51.48137 | 11.11766 | 21273 ft | 402 kts | 286° |
| 2026-04-21 12:23 | 51.48796 | 11.07369 | 21863 ft | 407 kts | 285° |
| 2026-04-21 12:23 | 51.49372 | 11.02944 | 22429 ft | 411 kts | 283° |
| 2026-04-21 12:23 | 51.49889 | 10.98400 | 22991 ft | 416 kts | 282° |
| 2026-04-21 12:23 | 51.50391 | 10.93802 | 23550 ft | 420 kts | 282° |
| 2026-04-21 12:24 | 51.50902 | 10.89143 | 24084 ft | 422 kts | 282° |
| 2026-04-21 12:24 | 51.51413 | 10.84562 | 24715 ft | 420 kts | 282° |
| 2026-04-21 12:24 | 51.51935 | 10.79943 | 25390 ft | 417 kts | 282° |
| 2026-04-21 12:24 | 51.52455 | 10.75367 | 26000 ft | 416 kts | 282° |
| 2026-04-21 12:25 | 51.52978 | 10.70782 | 26565 ft | 416 kts | 282° |
| 2026-04-21 12:25 | 51.53491 | 10.66253 | 27150 ft | 416 kts | 282° |
| 2026-04-21 12:25 | 51.54015 | 10.61677 | 27766 ft | 414 kts | 283° |
| 2026-04-21 12:25 | 51.54604 | 10.57137 | 28266 ft | 415 kts | 284° |
| 2026-04-21 12:26 | 51.55237 | 10.52572 | 28249 ft | 418 kts | 285° |
| 2026-04-21 12:26 | 51.56499 | 10.43603 | 28256 ft | 412 kts | 284° |
| 2026-04-21 12:27 | 51.57747 | 10.34559 | 28271 ft | 414 kts | 284° |
| 2026-04-21 12:27 | 51.58967 | 10.25552 | 28270 ft | 415 kts | 284° |
| 2026-04-21 12:28 | 51.60188 | 10.16435 | 28266 ft | 416 kts | 284° |
| 2026-04-21 12:28 | 51.61395 | 10.07357 | 28268 ft | 415 kts | 284° |
| 2026-04-21 12:29 | 51.62592 | 9.98306 | 28270 ft | 414 kts | 284° |
| 2026-04-21 12:29 | 51.63784 | 9.89234 | 28270 ft | 413 kts | 284° |
| 2026-04-21 12:30 | 51.64959 | 9.80232 | 28271 ft | 412 kts | 284° |
| 2026-04-21 12:30 | 51.66136 | 9.71166 | 28275 ft | 412 kts | 284° |
| 2026-04-21 12:31 | 51.67298 | 9.62159 | 28273 ft | 412 kts | 283° |
| 2026-04-21 12:31 | 51.68398 | 9.53096 | 28268 ft | 413 kts | 278° |
| 2026-04-21 12:31 | 51.68509 | 9.48443 | 28272 ft | 414 kts | 267° |
| 2026-04-21 12:32 | 51.68188 | 9.43889 | 28282 ft | 415 kts | 263° |
| 2026-04-21 12:32 | 51.67323 | 9.34674 | 28277 ft | 415 kts | 262° |
| 2026-04-21 12:33 | 51.66460 | 9.25457 | 28275 ft | 416 kts | 262° |
| 2026-04-21 12:33 | 51.65628 | 9.16246 | 28281 ft | 415 kts | 262° |
| 2026-04-21 12:34 | 51.64808 | 9.07098 | 28286 ft | 414 kts | 263° |
| 2026-04-21 12:34 | 51.63979 | 8.97905 | 28287 ft | 413 kts | 262° |
| 2026-04-21 12:35 | 51.63150 | 8.88809 | 28288 ft | 412 kts | 262° |
| 2026-04-21 12:35 | 51.62311 | 8.79675 | 28291 ft | 411 kts | 262° |
| 2026-04-21 12:36 | 51.60937 | 8.70850 | 28285 ft | 411 kts | 239° |
| 2026-04-21 12:36 | 51.59185 | 8.67215 | 28152 ft | 412 kts | 221° |
| 2026-04-21 12:36 | 51.56852 | 8.64579 | 27955 ft | 408 kts | 208° |
| 2026-04-21 12:36 | 51.54371 | 8.62358 | 27655 ft | 409 kts | 206° |
| 2026-04-21 12:37 | 51.51866 | 8.60202 | 27364 ft | 408 kts | 206° |
| 2026-04-21 12:37 | 51.49397 | 8.58076 | 27072 ft | 407 kts | 206° |
| 2026-04-21 12:37 | 51.46906 | 8.55907 | 26779 ft | 407 kts | 206° |
| 2026-04-21 12:37 | 51.44411 | 8.53710 | 26361 ft | 410 kts | 207° |
| 2026-04-21 12:38 | 51.41904 | 8.51488 | 25944 ft | 412 kts | 207° |
| 2026-04-21 12:38 | 51.39401 | 8.49261 | 25450 ft | 411 kts | 207° |
| 2026-04-21 12:38 | 51.36900 | 8.47036 | 24946 ft | 410 kts | 207° |
| 2026-04-21 12:38 | 51.34406 | 8.44821 | 24465 ft | 408 kts | 207° |
| 2026-04-21 12:39 | 51.31957 | 8.42651 | 23989 ft | 406 kts | 207° |
| 2026-04-21 12:39 | 51.29551 | 8.40299 | 23419 ft | 406 kts | 215° |
| 2026-04-21 12:39 | 51.27445 | 8.37296 | 22878 ft | 405 kts | 226° |
| 2026-04-21 12:39 | 51.25687 | 8.33784 | 22309 ft | 404 kts | 237° |
| 2026-04-21 12:40 | 51.24253 | 8.29929 | 21785 ft | 402 kts | 240° |
| 2026-04-21 12:40 | 51.22876 | 8.26044 | 21248 ft | 400 kts | 240° |
| 2026-04-21 12:40 | 51.21512 | 8.22183 | 20720 ft | 398 kts | 240° |
| 2026-04-21 12:40 | 51.20146 | 8.18354 | 20221 ft | 397 kts | 239° |
| 2026-04-21 12:41 | 51.18791 | 8.14599 | 19712 ft | 395 kts | 239° |
| 2026-04-21 12:41 | 51.17409 | 8.10801 | 19215 ft | 393 kts | 239° |
| 2026-04-21 12:41 | 51.16033 | 8.07037 | 18713 ft | 392 kts | 239° |
| 2026-04-21 12:41 | 51.14677 | 8.03335 | 18208 ft | 390 kts | 239° |
| 2026-04-21 12:42 | 51.13310 | 7.99611 | 17663 ft | 389 kts | 239° |
| 2026-04-21 12:42 | 51.11943 | 7.95895 | 17118 ft | 387 kts | 239° |
| 2026-04-21 12:42 | 51.10586 | 7.92186 | 16582 ft | 386 kts | 239° |
| 2026-04-21 12:42 | 51.09243 | 7.88504 | 16055 ft | 384 kts | 239° |
| 2026-04-21 12:43 | 51.07905 | 7.84842 | 15544 ft | 382 kts | 239° |
| 2026-04-21 12:43 | 51.06622 | 7.81219 | 15040 ft | 380 kts | 244° |
| 2026-04-21 12:43 | 51.05849 | 7.77216 | 14545 ft | 378 kts | 258° |
| 2026-04-21 12:43 | 51.05309 | 7.73124 | 14067 ft | 377 kts | 258° |
| 2026-04-21 12:44 | 51.04773 | 7.69036 | 13511 ft | 375 kts | 258° |
| 2026-04-21 12:44 | 51.04229 | 7.64992 | 12978 ft | 373 kts | 258° |
| 2026-04-21 12:44 | 51.03683 | 7.61027 | 12440 ft | 371 kts | 257° |
| 2026-04-21 12:44 | 51.03122 | 7.57028 | 11923 ft | 365 kts | 257° |
| 2026-04-21 12:45 | 51.02572 | 7.53146 | 11403 ft | 355 kts | 257° |
| 2026-04-21 12:45 | 51.02035 | 7.49366 | 10961 ft | 344 kts | 257° |
| 2026-04-21 12:45 | 51.01523 | 7.45771 | 10659 ft | 330 kts | 257° |
| 2026-04-21 12:45 | 51.01026 | 7.42302 | 10510 ft | 312 kts | 257° |
| 2026-04-21 12:46 | 51.00524 | 7.39033 | 10347 ft | 297 kts | 250° |
| 2026-04-21 12:46 | 50.99514 | 7.36253 | 10171 ft | 289 kts | 228° |
| 2026-04-21 12:46 | 50.98165 | 7.33895 | 9944 ft | 287 kts | 225° |
| 2026-04-21 12:46 | 50.96825 | 7.31613 | 9691 ft | 285 kts | 225° |
| 2026-04-21 12:47 | 50.95287 | 7.29671 | 9403 ft | 281 kts | 201° |
| 2026-04-21 12:47 | 50.93418 | 7.29014 | 9160 ft | 272 kts | 175° |
| 2026-04-21 12:47 | 50.91635 | 7.29788 | 8909 ft | 264 kts | 149° |
| 2026-04-21 12:47 | 50.90079 | 7.31301 | 8653 ft | 260 kts | 139° |
| 2026-04-21 12:48 | 50.88750 | 7.33161 | 8398 ft | 257 kts | 134° |
| 2026-04-21 12:48 | 50.87438 | 7.35084 | 8138 ft | 255 kts | 134° |
| 2026-04-21 12:48 | 50.86138 | 7.37006 | 7881 ft | 254 kts | 134° |
| 2026-04-21 12:48 | 50.84837 | 7.38904 | 7620 ft | 253 kts | 135° |
| 2026-04-21 12:49 | 50.83554 | 7.40759 | 7374 ft | 252 kts | 135° |
| 2026-04-21 12:49 | 50.83117 | 7.41389 | 7280 ft | 252 kts | 135° |
| 2026-04-21 12:49 | 50.80964 | 7.44484 | 6868 ft | 250 kts | 135° |
| 2026-04-21 12:49 | 50.79674 | 7.46337 | 6610 ft | 249 kts | 135° |
| 2026-04-21 12:50 | 50.78393 | 7.48173 | 6363 ft | 248 kts | 135° |
| 2026-04-21 12:50 | 50.77113 | 7.50007 | 6101 ft | 248 kts | 135° |
| 2026-04-21 12:50 | 50.75846 | 7.51820 | 5830 ft | 248 kts | 135° |
| 2026-04-21 12:50 | 50.74565 | 7.53637 | 5560 ft | 247 kts | 138° |
| 2026-04-21 12:51 | 50.73011 | 7.54794 | 5280 ft | 253 kts | 168° |
| 2026-04-21 12:51 | 50.71262 | 7.54561 | 5033 ft | 258 kts | 199° |
| 2026-04-21 12:51 | 50.69765 | 7.53002 | 4787 ft | 259 kts | 222° |
| 2026-04-21 12:51 | 50.68515 | 7.50935 | 4534 ft | 260 kts | 227° |
| 2026-04-21 12:52 | 50.67387 | 7.48730 | 4253 ft | 261 kts | 242° |
| 2026-04-21 12:52 | 50.66936 | 7.45996 | 4087 ft | 256 kts | 272° |
| 2026-04-21 12:52 | 50.67317 | 7.43334 | 3851 ft | 253 kts | 300° |
| 2026-04-21 12:52 | 50.68354 | 7.41177 | 3786 ft | 241 kts | 318° |
| 2026-04-21 12:53 | 50.69559 | 7.39405 | 3782 ft | 236 kts | 321° |
| 2026-04-21 12:53 | 50.70801 | 7.37713 | 3762 ft | 235 kts | 323° |
| 2026-04-21 12:53 | 50.72045 | 7.36105 | 3682 ft | 226 kts | 322° |
| 2026-04-21 12:53 | 50.73218 | 7.34473 | 3431 ft | 222 kts | 321° |
| 2026-04-21 12:54 | 50.74339 | 7.32848 | 3200 ft | 212 kts | 320° |
| 2026-04-21 12:54 | 50.75364 | 7.31342 | 3066 ft | 194 kts | 320° |
| 2026-04-21 12:54 | 50.76332 | 7.29929 | 2813 ft | 186 kts | 320° |
| 2026-04-21 12:54 | 50.77268 | 7.28573 | 2559 ft | 181 kts | 320° |
| 2026-04-21 12:55 | 50.78181 | 7.27256 | 2342 ft | 175 kts | 321° |
| 2026-04-21 12:55 | 50.79064 | 7.25964 | 2143 ft | 175 kts | 321° |
| 2026-04-21 12:55 | 50.79971 | 7.24640 | 1840 ft | 180 kts | 322° |
| 2026-04-21 12:55 | 50.80876 | 7.23330 | 1600 ft | 173 kts | 321° |
| 2026-04-21 12:56 | 50.81726 | 7.22088 | 1367 ft | 159 kts | 322° |
| 2026-04-21 12:56 | 50.82508 | 7.20949 | 1162 ft | 149 kts | 321° |
| 2026-04-21 12:56 | 50.83271 | 7.19823 | 943 ft | 151 kts | 321° |
| 2026-04-21 12:56 | 50.84047 | 7.18705 | 740 ft | 150 kts | 322° |
| 2026-04-21 12:57 | 50.84806 | 7.17590 | 545 ft | 148 kts | 321° |
| 2026-04-21 12:57 | 50.85560 | 7.16504 | 336 ft | 144 kts | 322° |
| 2026-04-21 12:57 | 50.86244 | 7.15521 | 280 ft | 112 kts | 317° |
| 2026-04-21 12:57 | 50.86559 | 7.15064 | 275 ft | 70 kts | 317° |
| 2026-04-21 12:58 | 50.86779 | 7.14750 | 271 ft | 28 kts | 318° |
| 2026-04-21 12:58 | 50.86873 | 7.14491 | 269 ft | 26 kts | 287° |
| 2026-04-21 12:58 | 50.86899 | 7.14213 | 272 ft | 25 kts | 277° |
| 2026-04-21 12:58 | 50.86915 | 7.14019 | 265 ft | 18 kts | 279° |
| 2026-04-21 12:59 | 50.86960 | 7.13849 | 262 ft | 17 kts | 321° |
| 2026-04-21 12:59 | 50.87058 | 7.13731 | 258 ft | 18 kts | 318° |
| 2026-04-21 12:59 | 50.87149 | 7.13594 | 253 ft | 19 kts | 315° |
| 2026-04-21 12:59 | 50.87250 | 7.13444 | 249 ft | 20 kts | 317° |
| 2026-04-21 13:00 | 50.87352 | 7.13300 | 246 ft | 19 kts | 319° |
| 2026-04-21 13:00 | 50.87440 | 7.13178 | 246 ft | 3 kts | 312° |
| 2026-04-21 13:00 | 50.87437 | 7.13146 | 245 ft | 4 kts | 233° |
| 2026-04-21 13:00 | 50.87412 | 7.13105 | 244 ft | 6 kts | 227° |
| 2026-04-21 13:01 | 50.87381 | 7.13044 | 242 ft | 7 kts | 229° |
| 2026-04-21 13:01 | 50.87374 | 7.13033 | 242 ft | 0 kts | 226° |